Anamosa, IA

1:42 PM CST on December 20, 2014 (GMT -0600)
Dubuque Regional | Change Station
CLOSE
Current Station
Airport
Location: Dubuque,
Elevation: 1079 ft
Nearby Weather Stations

Elev 1079 ft 42.40 °N, 90.70 °W | Updated 7 minutes ago

Fog
Fog
31 °F
Feels Like 23 °F
N
9
Wind Variable Wind from SSE

Today
High -- | Low -- °F
--% Chance of Precip.
Yesterday
High -- | Low -- °F
Precip. -- in
7:29 AM 4:35 PM
Waning Crescent, 2% visible
Pressure 30.18 in
Visibility 5.0 miles
Clouds Overcast 1400 ft
Windchill 23 °F
Dew Point 25 °F
Humidity 79%
Rainfall 0.00 in
Snow Depth Not available.
UV 0 out of 12
Pollen .10 out of 12
Air Quality Not available.
Flu Activity Not available.
SPECI KDBQ 201935Z 16008KT 5SM HZ OVC014 M01/M04 A3018 RMK AO2 T10061039

More Conditions Fewer Conditions

Pressure 30.18 in
Visibility 5.0 miles
Clouds Overcast 1400 ft
Windchill 23 °F
Dew Point 25 °F
Humidity 79%
Rainfall 0.00 in
Snow Depth Not available.
UV 0 out of 12
Pollen .10 out of 12
Air Quality Not available.
Flu Activity Not available.
SPECI KDBQ 201935Z 16008KT 5SM HZ OVC014 M01/M04 A3018 RMK AO2 T10061039

More Conditions Fewer Conditions

10-Day Weather Forecast

Almanac

Astronomy

Dec. 20, 2014 Rise Set
Actual Time
Civil Twilight
Nautical Twilight
Astronomical Twilight
Moon
Length of Visible Light
Length of Day
Tomorrow will be .
, % of the Moon is Illuminated

Today's Extremes

State Highs State Lows

Community

WunderPhotos

Upload Photos

1,779,257 photos uploaded!

WunderBlogs® & News

Nearby

Air Quality

  Air Quality AQ Index Pollutant
Not available.

Snow Depth

Station Depth Elevation

Earthquake Activity

City Distance Mag. Time & Date
Minimum magnitude displayed is 2.5.

Coastal Water Temperatures

Place Temperature

Nearby Weather Stations